sensor_id;sensor_type;location;lat;lon;timestamp;pressure;altitude;pressure_sealevel;temperature;humidity
43257;BME280;28860;43.212;27.934;2022-09-30T00:01:43;100612.28;;;25.75;49.23
43257;BME280;28860;43.212;27.934;2022-09-30T00:04:20;100604.03;;;25.75;49.71
43257;BME280;28860;43.212;27.934;2022-09-30T00:06:46;100588.22;;;25.55;49.55
43257;BME280;28860;43.212;27.934;2022-09-30T00:09:12;100588.47;;;25.61;49.75
43257;BME280;28860;43.212;27.934;2022-09-30T00:11:39;100582.09;;;25.38;50.10
43257;BME280;28860;43.212;27.934;2022-09-30T00:14:06;100593.63;;;25.34;50.48
43257;BME280;28860;43.212;27.934;2022-09-30T00:16:34;100593.72;;;25.40;49.86
43257;BME280;28860;43.212;27.934;2022-09-30T00:19:00;100606.13;;;25.51;49.72
43257;BME280;28860;43.212;27.934;2022-09-30T00:21:28;100601.94;;;25.55;49.61
43257;BME280;28860;43.212;27.934;2022-09-30T00:23:55;100610.03;;;25.64;49.84
43257;BME280;28860;43.212;27.934;2022-09-30T00:26:22;100612.28;;;25.53;49.99
43257;BME280;28860;43.212;27.934;2022-09-30T00:28:53;100621.03;;;25.64;49.98
43257;BME280;28860;43.212;27.934;2022-09-30T00:31:20;100626.53;;;25.64;49.85
43257;BME280;28860;43.212;27.934;2022-09-30T00:33:46;100623.59;;;25.65;50.05
43257;BME280;28860;43.212;27.934;2022-09-30T00:36:45;100631.09;;;25.56;49.75
43257;BME280;28860;43.212;27.934;2022-09-30T00:41:45;100612.03;;;25.18;50.48
43257;BME280;28860;43.212;27.934;2022-09-30T00:47:32;100636.06;;;25.16;51.49
43257;BME280;28860;43.212;27.934;2022-09-30T00:50:16;100642.50;;;25.23;51.11
43257;BME280;28860;43.212;27.934;2022-09-30T00:52:46;100631.91;;;25.20;50.75
43257;BME280;28860;43.212;27.934;2022-09-30T00:58:06;100631.91;;;25.20;50.65
43257;BME280;28860;43.212;27.934;2022-09-30T01:00:32;100642.88;;;25.20;50.46
43257;BME280;28860;43.212;27.934;2022-09-30T01:02:58;100639.47;;;25.18;50.66
43257;BME280;28860;43.212;27.934;2022-09-30T01:05:25;100641.84;;;25.21;50.28
43257;BME280;28860;43.212;27.934;2022-09-30T01:07:54;100644.09;;;25.33;50.46
43257;BME280;28860;43.212;27.934;2022-09-30T01:10:20;100620.56;;;25.23;50.25
43257;BME280;28860;43.212;27.934;2022-09-30T01:12:46;100626.56;;;25.34;50.14
43257;BME280;28860;43.212;27.934;2022-09-30T01:15:12;100624.88;;;25.33;49.90
43257;BME280;28860;43.212;27.934;2022-09-30T01:17:55;100629.13;;;25.35;50.02
43257;BME280;28860;43.212;27.934;2022-09-30T01:20:53;100636.41;;;25.43;50.16
43257;BME280;28860;43.212;27.934;2022-09-30T01:23:46;100635.28;;;25.37;49.93
43257;BME280;28860;43.212;27.934;2022-09-30T01:26:26;100635.09;;;25.39;49.27
43257;BME280;28860;43.212;27.934;2022-09-30T01:29:31;100632.06;;;25.34;49.03
43257;BME280;28860;43.212;27.934;2022-09-30T01:40:27;100633.75;;;25.35;48.89
43257;BME280;28860;43.212;27.934;2022-09-30T01:45:42;100632.72;;;25.36;48.95
43257;BME280;28860;43.212;27.934;2022-09-30T01:48:22;100636.81;;;25.40;48.85
43257;BME280;28860;43.212;27.934;2022-09-30T01:51:00;100620.56;;;25.23;49.39
43257;BME280;28860;43.212;27.934;2022-09-30T01:56:17;100647.78;;;25.40;49.04
43257;BME280;28860;43.212;27.934;2022-09-30T01:59:14;100654.97;;;25.41;49.49
43257;BME280;28860;43.212;27.934;2022-09-30T02:01:54;100645.34;;;25.15;49.70
43257;BME280;28860;43.212;27.934;2022-09-30T02:04:28;100653.22;;;25.03;50.14
43257;BME280;28860;43.212;27.934;2022-09-30T02:07:00;100643.91;;;24.74;50.71
43257;BME280;28860;43.212;27.934;2022-09-30T02:09:50;100643.72;;;24.76;50.39
43257;BME280;28860;43.212;27.934;2022-09-30T02:12:20;100659.72;;;24.87;50.17
43257;BME280;28860;43.212;27.934;2022-09-30T02:17:26;100676.94;;;24.81;50.86
43257;BME280;28860;43.212;27.934;2022-09-30T02:20:16;100656.72;;;24.82;50.42
43257;BME280;28860;43.212;27.934;2022-09-30T02:22:45;100671.66;;;24.94;50.25
43257;BME280;28860;43.212;27.934;2022-09-30T02:25:28;100667.22;;;24.93;50.48
43257;BME280;28860;43.212;27.934;2022-09-30T02:27:58;100675.00;;;24.66;51.46
43257;BME280;28860;43.212;27.934;2022-09-30T02:30:26;100688.31;;;24.78;51.33
43257;BME280;28860;43.212;27.934;2022-09-30T02:32:56;100685.72;;;24.76;51.36
43257;BME280;28860;43.212;27.934;2022-09-30T02:36:14;100689.38;;;24.68;51.75
43257;BME280;28860;43.212;27.934;2022-09-30T02:38:22;100682.19;;;24.67;51.66
43257;BME280;28860;43.212;27.934;2022-09-30T02:41:01;100698.66;;;24.67;51.55
43257;BME280;28860;43.212;27.934;2022-09-30T02:43:31;100695.50;;;24.55;52.13
43257;BME280;28860;43.212;27.934;2022-09-30T02:48:41;100703.19;;;24.13;53.16
43257;BME280;28860;43.212;27.934;2022-09-30T02:59:06;100696.09;;;23.72;54.29
43257;BME280;28860;43.212;27.934;2022-09-30T03:01:32;100709.38;;;23.84;53.86
43257;BME280;28860;43.212;27.934;2022-09-30T03:04:04;100674.97;;;23.81;53.45
43257;BME280;28860;43.212;27.934;2022-09-30T03:06:33;100707.44;;;23.93;53.60
43257;BME280;28860;43.212;27.934;2022-09-30T03:08:59;100703.28;;;23.97;53.19
43257;BME280;28860;43.212;27.934;2022-09-30T03:11:27;100707.44;;;23.93;53.69
43257;BME280;28860;43.212;27.934;2022-09-30T03:13:58;100707.56;;;23.99;53.57
43257;BME280;28860;43.212;27.934;2022-09-30T03:20:12;100713.13;;;24.14;52.74
43257;BME280;28860;43.212;27.934;2022-09-30T03:28:40;100717.44;;;24.32;52.42
43257;BME280;28860;43.212;27.934;2022-09-30T03:31:32;100728.53;;;24.39;52.48
43257;BME280;28860;43.212;27.934;2022-09-30T03:42:21;100711.34;;;23.67;53.54
43257;BME280;28860;43.212;27.934;2022-09-30T03:47:29;100704.84;;;23.68;53.05
43257;BME280;28860;43.212;27.934;2022-09-30T03:49:59;100716.69;;;23.92;53.00
43257;BME280;28860;43.212;27.934;2022-09-30T03:52:26;100719.72;;;23.97;52.53
43257;BME280;28860;43.212;27.934;2022-09-30T03:54:57;100735.78;;;24.00;52.23
43257;BME280;28860;43.212;27.934;2022-09-30T03:57:27;100718.97;;;23.80;52.52
43257;BME280;28860;43.212;27.934;2022-09-30T03:59:57;100725.69;;;23.69;52.75
43257;BME280;28860;43.212;27.934;2022-09-30T04:02:24;100721.34;;;23.51;52.60
43257;BME280;28860;43.212;27.934;2022-09-30T04:04:49;100724.59;;;23.55;52.44
43257;BME280;28860;43.212;27.934;2022-09-30T04:07:15;100739.91;;;23.32;52.63
43257;BME280;28860;43.212;27.934;2022-09-30T04:09:41;100736.41;;;23.47;52.41
43257;BME280;28860;43.212;27.934;2022-09-30T04:12:07;100739.09;;;23.55;52.39
43257;BME280;28860;43.212;27.934;2022-09-30T04:14:33;100747.97;;;23.66;51.82
43257;BME280;28860;43.212;27.934;2022-09-30T04:16:59;100738.06;;;23.65;51.65
43257;BME280;28860;43.212;27.934;2022-09-30T04:19:24;100745.00;;;23.75;51.20
43257;BME280;28860;43.212;27.934;2022-09-30T04:21:51;100749.13;;;23.71;51.12
43257;BME280;28860;43.212;27.934;2022-09-30T04:24:18;100750.16;;;23.70;51.21
43257;BME280;28860;43.212;27.934;2022-09-30T04:26:44;100749.22;;;23.55;51.54
43257;BME280;28860;43.212;27.934;2022-09-30T04:29:10;100742.50;;;23.57;51.14
43257;BME280;28860;43.212;27.934;2022-09-30T04:31:35;100761.50;;;23.67;50.76
43257;BME280;28860;43.212;27.934;2022-09-30T04:34:02;100755.44;;;23.72;50.70
43257;BME280;28860;43.212;27.934;2022-09-30T04:36:29;100753.47;;;23.57;51.31
43257;BME280;28860;43.212;27.934;2022-09-30T04:38:54;100782.81;;;23.72;50.80
43257;BME280;28860;43.212;27.934;2022-09-30T04:41:20;100785.19;;;23.83;50.82
43257;BME280;28860;43.212;27.934;2022-09-30T04:43:47;100790.28;;;23.86;50.89
43257;BME280;28860;43.212;27.934;2022-09-30T04:46:14;100786.38;;;23.81;50.94
43257;BME280;28860;43.212;27.934;2022-09-30T04:48:41;100802.25;;;23.94;50.72
43257;BME280;28860;43.212;27.934;2022-09-30T04:51:22;100812.84;;;23.97;50.67
43257;BME280;28860;43.212;27.934;2022-09-30T04:53:48;100800.41;;;23.86;51.00
43257;BME280;28860;43.212;27.934;2022-09-30T04:56:19;100787.97;;;23.75;50.90
43257;BME280;28860;43.212;27.934;2022-09-30T04:58:52;100784.19;;;23.76;50.95
43257;BME280;28860;43.212;27.934;2022-09-30T05:01:30;100815.00;;;23.70;51.01
43257;BME280;28860;43.212;27.934;2022-09-30T05:03:58;100790.13;;;23.40;51.25
43257;BME280;28860;43.212;27.934;2022-09-30T05:21:59;100782.84;;;24.12;50.45
43257;BME280;28860;43.212;27.934;2022-09-30T05:24:28;100798.31;;;24.28;50.04
43257;BME280;28860;43.212;27.934;2022-09-30T05:26:56;100794.16;;;24.32;49.63
43257;BME280;28860;43.212;27.934;2022-09-30T05:29:25;100786.97;;;24.31;49.38
43257;BME280;28860;43.212;27.934;2022-09-30T05:34:26;100815.50;;;24.68;48.71
43257;BME280;28860;43.212;27.934;2022-09-30T05:42:04;100783.56;;;24.76;47.91
43257;BME280;28860;43.212;27.934;2022-09-30T05:47:16;100781.59;;;25.08;46.97
43257;BME280;28860;43.212;27.934;2022-09-30T05:49:43;100800.25;;;25.27;46.60
43257;BME280;28860;43.212;27.934;2022-09-30T05:55:07;100788.50;;;25.34;46.16
43257;BME280;28860;43.212;27.934;2022-09-30T06:05:19;100812.03;;;25.66;47.66
43257;BME280;28860;43.212;27.934;2022-09-30T06:12:56;100820.41;;;25.20;49.37
43257;BME280;28860;43.212;27.934;2022-09-30T06:18:03;100833.66;;;25.46;48.74
43257;BME280;28860;43.212;27.934;2022-09-30T06:20:35;100816.25;;;25.39;48.61
43257;BME280;28860;43.212;27.934;2022-09-30T06:26:07;100810.38;;;25.42;47.93
43257;BME280;28860;43.212;27.934;2022-09-30T06:36:58;100837.44;;;25.45;47.81
43257;BME280;28860;43.212;27.934;2022-09-30T06:39:24;100849.03;;;25.55;47.69
43257;BME280;28860;43.212;27.934;2022-09-30T06:41:51;100854.22;;;25.50;47.03
43257;BME280;28860;43.212;27.934;2022-09-30T06:51:56;100878.59;;;25.53;47.68
43257;BME280;28860;43.212;27.934;2022-09-30T06:54:26;100885.03;;;25.61;47.18
43257;BME280;28860;43.212;27.934;2022-09-30T06:56:55;100903.69;;;25.65;47.18
43257;BME280;28860;43.212;27.934;2022-09-30T07:07:59;100918.75;;;25.84;46.77
43257;BME280;28860;43.212;27.934;2022-09-30T07:13:03;100920.06;;;25.89;46.37
43257;BME280;28860;43.212;27.934;2022-09-30T07:21:07;100929.06;;;25.97;44.48
43257;BME280;28860;43.212;27.934;2022-09-30T07:23:34;100899.81;;;25.90;44.49
43257;BME280;28860;43.212;27.934;2022-09-30T07:31:13;100904.66;;;26.18;44.52
43257;BME280;28860;43.212;27.934;2022-09-30T07:34:14;100919.47;;;26.38;44.09
